createdAt,value
2016-09-10T00:00:44.415Z,15.1
2016-09-10T00:15:37.821Z,15
2016-09-10T00:30:37.855Z,14.9
2016-09-10T00:45:37.844Z,14.9
2016-09-10T01:00:37.837Z,14.8
2016-09-10T01:15:42.889Z,14.6
2016-09-10T01:30:37.893Z,14.7
2016-09-10T01:45:48.756Z,14.6
2016-09-10T02:00:37.868Z,14.6
2016-09-10T02:15:37.851Z,14.8
2016-09-10T02:30:37.930Z,14.9
2016-09-10T02:45:42.903Z,14.9
2016-09-10T03:00:49.206Z,14.7
2016-09-10T03:15:42.904Z,14.5
2016-09-10T03:30:37.890Z,14.2
2016-09-10T03:45:37.874Z,14.2
2016-09-10T04:00:37.875Z,14.3
2016-09-10T04:15:46.112Z,14.1
2016-09-10T04:30:42.833Z,13.9
2016-09-10T04:45:37.874Z,13.8
2016-09-10T05:00:37.883Z,14
2016-09-10T05:15:42.919Z,14
2016-09-10T05:30:37.890Z,14.1
2016-09-10T05:45:48.614Z,14.1
2016-09-10T06:00:50.302Z,14.3
2016-09-10T06:15:42.473Z,14.5
2016-09-10T06:30:37.885Z,14.8
2016-09-10T06:45:37.902Z,15
2016-09-10T07:00:37.945Z,15.3
2016-09-10T07:15:42.102Z,15.6
2016-09-10T07:30:48.697Z,16
2016-09-10T07:45:48.814Z,16.5
2016-09-10T08:00:37.923Z,17
2016-09-10T08:15:37.926Z,17.4
2016-09-10T08:30:37.897Z,18
2016-09-10T08:45:37.913Z,18.5
2016-09-10T09:00:37.941Z,19.1
2016-09-10T09:15:48.844Z,19.5
2016-09-10T09:30:47.165Z,20
2016-09-10T09:45:47.081Z,22
2016-09-10T10:00:42.557Z,22.1
2016-09-10T10:15:46.253Z,22
2016-09-10T10:30:37.933Z,22.3
2016-09-10T10:45:37.948Z,22.6
2016-09-10T11:00:37.936Z,22.9
2016-09-10T11:15:44.103Z,23.4
2016-09-10T11:30:37.948Z,23.8
2016-09-10T11:45:42.993Z,24.1
2016-09-10T12:00:42.999Z,24.6
2016-09-10T12:15:43.009Z,24.9
2016-09-10T12:30:42.896Z,25.1
2016-09-10T12:45:43.001Z,25.2
2016-09-10T13:00:37.967Z,25.5
2016-09-10T13:15:37.968Z,25.6
2016-09-10T13:30:38.002Z,25.9
2016-09-10T13:45:37.968Z,26.1
2016-09-10T14:00:37.968Z,26.4
2016-09-10T14:15:37.969Z,26.5
2016-09-10T14:30:42.826Z,26.2
2016-09-10T14:45:37.975Z,25.7
2016-09-10T15:00:37.982Z,26
2016-09-10T15:15:42.193Z,26.1
2016-09-10T15:30:38.006Z,25.9
2016-09-10T15:45:38.012Z,25.9
2016-09-10T16:00:43.020Z,25.7
2016-09-10T16:15:37.984Z,25.5
2016-09-10T16:30:40.092Z,25.4
2016-09-10T16:45:38.052Z,25.1
2016-09-10T17:00:37.987Z,24.7
2016-09-10T17:15:37.995Z,24.2
2016-09-10T17:30:38.012Z,23.6
2016-09-10T17:45:38.032Z,23.1
2016-09-10T18:00:38.110Z,22.6
2016-09-10T18:15:38.004Z,22.3
2016-09-10T18:30:52.725Z,22.1
2016-09-10T18:45:45.613Z,21.9
2016-09-10T19:00:44.762Z,21.6
2016-09-10T19:15:38.015Z,21.2
2016-09-10T19:30:38.019Z,21
2016-09-10T19:45:38.020Z,20.7
2016-09-10T20:00:38.061Z,20.5
2016-09-10T20:15:38.031Z,20.4
2016-09-10T20:30:44.331Z,20.2
2016-09-10T20:45:42.234Z,20.1
2016-09-10T21:00:38.062Z,19.8
2016-09-10T21:15:38.038Z,19.7
2016-09-10T21:30:43.067Z,19.7
2016-09-10T21:45:43.105Z,19.5
2016-09-10T22:00:38.069Z,19.4
2016-09-10T22:15:38.025Z,19.3
2016-09-10T22:30:38.040Z,19.1
2016-09-10T22:45:43.080Z,19.1
2016-09-10T23:00:42.436Z,19.2
2016-09-10T23:15:42.976Z,19.1
2016-09-10T23:30:42.657Z,19.2
2016-09-10T23:45:38.049Z,19.1
